sensor_id;sensor_type;location;lat;lon;timestamp;pressure;altitude;pressure_sealevel;temperature;humidity
32324;BME280;25666;44.350;9.222;2022-12-29T00:01:23;102396.59;;;12.96;100.00
32324;BME280;25666;44.350;9.222;2022-12-29T00:03:49;102388.38;;;13.00;100.00
32324;BME280;25666;44.350;9.222;2022-12-29T00:06:14;102391.16;;;13.00;100.00
32324;BME280;25666;44.350;9.222;2022-12-29T00:08:40;102391.66;;;12.93;100.00
32324;BME280;25666;44.350;9.222;2022-12-29T00:11:12;102384.41;;;12.92;100.00
32324;BME280;25666;44.350;9.222;2022-12-29T00:13:38;102387.19;;;12.92;100.00
32324;BME280;25666;44.350;9.222;2022-12-29T00:16:23;102376.00;;;12.83;100.00
32324;BME280;25666;44.350;9.222;2022-12-29T00:18:49;102371.09;;;12.89;100.00
32324;BME280;25666;44.350;9.222;2022-12-29T00:21:16;102370.75;;;12.90;100.00
32324;BME280;25666;44.350;9.222;2022-12-29T00:24:00;102360.56;;;12.95;100.00
32324;BME280;25666;44.350;9.222;2022-12-29T00:26:47;102355.16;;;12.89;100.00
32324;BME280;25666;44.350;9.222;2022-12-29T00:29:31;102354.31;;;12.89;100.00
32324;BME280;25666;44.350;9.222;2022-12-29T00:32:15;102353.50;;;12.88;100.00
32324;BME280;25666;44.350;9.222;2022-12-29T00:34:59;102347.41;;;12.86;100.00
32324;BME280;25666;44.350;9.222;2022-12-29T00:37:41;102344.63;;;12.86;100.00
32324;BME280;25666;44.350;9.222;2022-12-29T00:40:26;102343.44;;;12.79;100.00
32324;BME280;25666;44.350;9.222;2022-12-29T00:43:10;102353.84;;;12.87;100.00
32324;BME280;25666;44.350;9.222;2022-12-29T00:45:54;102356.63;;;12.87;100.00
32324;BME280;25666;44.350;9.222;2022-12-29T00:48:20;102348.91;;;12.84;100.00
32324;BME280;25666;44.350;9.222;2022-12-29T00:51:07;102350.53;;;12.76;100.00
32324;BME280;25666;44.350;9.222;2022-12-29T00:53:33;102350.03;;;12.83;100.00
32324;BME280;25666;44.350;9.222;2022-12-29T00:55:59;102346.59;;;12.86;100.00
32324;BME280;25666;44.350;9.222;2022-12-29T00:58:29;102359.25;;;12.83;100.00
32324;BME280;25666;44.350;9.222;2022-12-29T01:01:06;102350.53;;;12.85;100.00
32324;BME280;25666;44.350;9.222;2022-12-29T01:03:33;102351.34;;;12.85;100.00
32324;BME280;25666;44.350;9.222;2022-12-29T01:06:03;102351.69;;;12.84;100.00
32324;BME280;25666;44.350;9.222;2022-12-29T01:08:29;102355.63;;;12.74;100.00
32324;BME280;25666;44.350;9.222;2022-12-29T01:11:03;102353.31;;;12.76;100.00
32324;BME280;25666;44.350;9.222;2022-12-29T01:13:29;102350.34;;;12.81;100.00
32324;BME280;25666;44.350;9.222;2022-12-29T01:15:55;102351.84;;;12.79;100.00
32324;BME280;25666;44.350;9.222;2022-12-29T01:18:21;102355.78;;;12.78;100.00
32324;BME280;25666;44.350;9.222;2022-12-29T01:20:47;102357.56;;;12.65;100.00
32324;BME280;25666;44.350;9.222;2022-12-29T01:23:13;102357.41;;;12.70;100.00
32324;BME280;25666;44.350;9.222;2022-12-29T01:25:38;102351.34;;;12.77;100.00
32324;BME280;25666;44.350;9.222;2022-12-29T01:28:04;102361.34;;;12.69;100.00
32324;BME280;25666;44.350;9.222;2022-12-29T01:30:30;102352.00;;;12.74;100.00
32324;BME280;25666;44.350;9.222;2022-12-29T01:32:55;102353.31;;;12.76;100.00
32324;BME280;25666;44.350;9.222;2022-12-29T01:35:21;102346.72;;;12.64;100.00
32324;BME280;25666;44.350;9.222;2022-12-29T01:37:46;102331.94;;;12.72;100.00
32324;BME280;25666;44.350;9.222;2022-12-29T01:40:12;102327.81;;;12.69;100.00
32324;BME280;25666;44.350;9.222;2022-12-29T01:42:38;102341.13;;;12.72;100.00
32324;BME280;25666;44.350;9.222;2022-12-29T01:45:11;102341.13;;;12.72;100.00
32324;BME280;25666;44.350;9.222;2022-12-29T01:47:50;102341.47;;;12.62;100.00
32324;BME280;25666;44.350;9.222;2022-12-29T01:50:18;102345.22;;;12.66;100.00
32324;BME280;25666;44.350;9.222;2022-12-29T01:53:03;102345.41;;;12.70;100.00
32324;BME280;25666;44.350;9.222;2022-12-29T01:55:35;102344.09;;;12.67;100.00
32324;BME280;25666;44.350;9.222;2022-12-29T01:58:04;102345.53;;;12.56;100.00
32324;BME280;25666;44.350;9.222;2022-12-29T02:00:30;102343.59;;;12.65;100.00
32324;BME280;25666;44.350;9.222;2022-12-29T02:02:55;102358.16;;;12.45;100.00
32324;BME280;25666;44.350;9.222;2022-12-29T02:05:30;102361.13;;;12.49;100.00
32324;BME280;25666;44.350;9.222;2022-12-29T02:07:59;102360.97;;;12.45;100.00
32324;BME280;25666;44.350;9.222;2022-12-29T02:10:28;102357.22;;;12.50;100.00
32324;BME280;25666;44.350;9.222;2022-12-29T02:12:55;102349.66;;;12.59;100.00
32324;BME280;25666;44.350;9.222;2022-12-29T02:18:25;102334.53;;;12.51;100.00
32324;BME280;25666;44.350;9.222;2022-12-29T02:21:27;102338.50;;;12.59;100.00
32324;BME280;25666;44.350;9.222;2022-12-29T02:32:25;102325.47;;;12.46;100.00
32324;BME280;25666;44.350;9.222;2022-12-29T02:46:13;102312.84;;;12.48;100.00
32324;BME280;25666;44.350;9.222;2022-12-29T02:48:46;102317.41;;;12.44;100.00
32324;BME280;25666;44.350;9.222;2022-12-29T02:51:23;102305.75;;;12.42;100.00
32324;BME280;25666;44.350;9.222;2022-12-29T02:53:52;102309.84;;;12.45;100.00
32324;BME280;25666;44.350;9.222;2022-12-29T02:56:37;102303.97;;;12.46;100.00
32324;BME280;25666;44.350;9.222;2022-12-29T02:59:03;102302.31;;;12.54;100.00
32324;BME280;25666;44.350;9.222;2022-12-29T03:04:54;102303.97;;;12.46;100.00
32324;BME280;25666;44.350;9.222;2022-12-29T03:07:51;102301.34;;;12.50;100.00
32324;BME280;25666;44.350;9.222;2022-12-29T03:12:56;102288.53;;;12.49;100.00
32324;BME280;25666;44.350;9.222;2022-12-29T03:15:54;102290.97;;;12.50;100.00
32324;BME280;25666;44.350;9.222;2022-12-29T03:23:41;102281.28;;;12.56;100.00
32324;BME280;25666;44.350;9.222;2022-12-29T03:26:11;102281.28;;;12.48;100.00
32324;BME280;25666;44.350;9.222;2022-12-29T03:28:44;102272.41;;;12.37;100.00
32324;BME280;25666;44.350;9.222;2022-12-29T03:31:14;102276.16;;;12.41;100.00
32324;BME280;25666;44.350;9.222;2022-12-29T03:33:42;102274.66;;;12.18;100.00
32324;BME280;25666;44.350;9.222;2022-12-29T03:36:20;102281.09;;;12.27;100.00
32324;BME280;25666;44.350;9.222;2022-12-29T03:39:06;102286.16;;;12.25;100.00
32324;BME280;25666;44.350;9.222;2022-12-29T03:41:36;102282.25;;;12.34;100.00
32324;BME280;25666;44.350;9.222;2022-12-29T03:44:05;102276.16;;;12.32;100.00
32324;BME280;25666;44.350;9.222;2022-12-29T03:46:33;102279.97;;;12.37;100.00
32324;BME280;25666;44.350;9.222;2022-12-29T03:48:59;102285.38;;;12.33;100.00
32324;BME280;25666;44.350;9.222;2022-12-29T03:51:24;102276.34;;;12.36;100.00
32324;BME280;25666;44.350;9.222;2022-12-29T03:53:50;102277.16;;;12.37;100.00
32324;BME280;25666;44.350;9.222;2022-12-29T03:56:16;102278.13;;;12.32;100.00
32324;BME280;25666;44.350;9.222;2022-12-29T03:58:41;102273.53;;;12.27;100.00
32324;BME280;25666;44.350;9.222;2022-12-29T04:01:14;102277.09;;;12.19;100.00
32324;BME280;25666;44.350;9.222;2022-12-29T04:03:39;102276.63;;;12.26;100.00
32324;BME280;25666;44.350;9.222;2022-12-29T04:06:05;102273.03;;;12.25;100.00
32324;BME280;25666;44.350;9.222;2022-12-29T04:08:51;102266.59;;;12.25;100.00
32324;BME280;25666;44.350;9.222;2022-12-29T04:11:16;102271.06;;;12.34;100.00
32324;BME280;25666;44.350;9.222;2022-12-29T04:13:42;102269.41;;;12.25;100.00
32324;BME280;25666;44.350;9.222;2022-12-29T04:16:12;102268.06;;;12.14;100.00
32324;BME280;25666;44.350;9.222;2022-12-29T04:18:37;102265.94;;;12.19;100.00
32324;BME280;25666;44.350;9.222;2022-12-29T04:21:03;102264.16;;;12.23;100.00
32324;BME280;25666;44.350;9.222;2022-12-29T04:23:34;102261.38;;;12.23;100.00
32324;BME280;25666;44.350;9.222;2022-12-29T04:26:02;102251.50;;;12.17;100.00
32324;BME280;25666;44.350;9.222;2022-12-29T04:28:28;102266.59;;;12.25;100.00
32324;BME280;25666;44.350;9.222;2022-12-29T04:31:30;102255.31;;;12.30;100.00
32324;BME280;25666;44.350;9.222;2022-12-29T04:33:55;102253.47;;;12.17;100.00
32324;BME280;25666;44.350;9.222;2022-12-29T04:36:23;102252.81;;;12.11;100.00
32324;BME280;25666;44.350;9.222;2022-12-29T04:38:49;102244.72;;;12.10;100.00
32324;BME280;25666;44.350;9.222;2022-12-29T04:41:14;102255.59;;;12.20;100.00
32324;BME280;25666;44.350;9.222;2022-12-29T04:43:40;102254.97;;;12.23;100.00
32324;BME280;25666;44.350;9.222;2022-12-29T04:46:14;102252.63;;;12.08;100.00
32324;BME280;25666;44.350;9.222;2022-12-29T04:48:47;102257.09;;;12.17;100.00
32324;BME280;25666;44.350;9.222;2022-12-29T04:51:32;102251.50;;;12.17;100.00
32324;BME280;25666;44.350;9.222;2022-12-29T04:53:59;102250.69;;;12.17;100.00
32324;BME280;25666;44.350;9.222;2022-12-29T04:56:26;102245.91;;;12.17;100.00
32324;BME280;25666;44.350;9.222;2022-12-29T04:58:51;102253.16;;;12.18;100.00
32324;BME280;25666;44.350;9.222;2022-12-29T05:01:19;102257.38;;;12.16;100.00
32324;BME280;25666;44.350;9.222;2022-12-29T05:03:45;102257.56;;;12.11;100.00
32324;BME280;25666;44.350;9.222;2022-12-29T05:06:10;102257.06;;;12.09;100.00
32324;BME280;25666;44.350;9.222;2022-12-29T05:08:36;102260.66;;;12.09;100.00
32324;BME280;25666;44.350;9.222;2022-12-29T05:11:02;102260.00;;;12.12;100.00
32324;BME280;25666;44.350;9.222;2022-12-29T05:13:27;102255.59;;;12.11;100.00
32324;BME280;25666;44.350;9.222;2022-12-29T05:15:53;102261.94;;;12.03;100.00
32324;BME280;25666;44.350;9.222;2022-12-29T05:18:21;102273.72;;;11.92;100.00
32324;BME280;25666;44.350;9.222;2022-12-29T05:20:47;102263.75;;;11.99;100.00
32324;BME280;25666;44.350;9.222;2022-12-29T05:23:13;102267.88;;;12.02;100.00
32324;BME280;25666;44.350;9.222;2022-12-29T05:25:40;102267.34;;;12.00;100.00
32324;BME280;25666;44.350;9.222;2022-12-29T05:28:15;102270.59;;;11.85;100.00
32324;BME280;25666;44.350;9.222;2022-12-29T05:30:50;102270.31;;;11.95;100.00
32324;BME280;25666;44.350;9.222;2022-12-29T05:33:18;102263.94;;;12.03;100.00
32324;BME280;25666;44.350;9.222;2022-12-29T05:35:44;102272.59;;;11.93;100.00
32324;BME280;25666;44.350;9.222;2022-12-29T05:38:10;102271.94;;;11.87;100.00
32324;BME280;25666;44.350;9.222;2022-12-29T05:40:37;102276.03;;;11.90;100.00
32324;BME280;25666;44.350;9.222;2022-12-29T05:43:07;102272.31;;;12.03;100.00
32324;BME280;25666;44.350;9.222;2022-12-29T05:45:40;102280.19;;;12.09;100.00
32324;BME280;25666;44.350;9.222;2022-12-29T05:48:24;102289.72;;;12.08;100.00
32324;BME280;25666;44.350;9.222;2022-12-29T05:51:07;102288.97;;;11.86;100.00
32324;BME280;25666;44.350;9.222;2022-12-29T05:53:44;102286.03;;;11.91;100.00
32324;BME280;25666;44.350;9.222;2022-12-29T05:56:09;102292.97;;;11.93;100.00
32324;BME280;25666;44.350;9.222;2022-12-29T05:58:35;102284.78;;;12.05;100.00
32324;BME280;25666;44.350;9.222;2022-12-29T06:03:42;102283.69;;;12.15;100.00
32324;BME280;25666;44.350;9.222;2022-12-29T06:06:08;102283.28;;;11.99;100.00
32324;BME280;25666;44.350;9.222;2022-12-29T06:08:35;102289.06;;;12.03;100.00
32324;BME280;25666;44.350;9.222;2022-12-29T06:11:02;102288.44;;;12.14;100.00
32324;BME280;25666;44.350;9.222;2022-12-29T06:13:28;102291.41;;;12.18;100.00
32324;BME280;25666;44.350;9.222;2022-12-29T06:15:55;102296.66;;;12.19;100.00
32324;BME280;25666;44.350;9.222;2022-12-29T06:18:24;102290.06;;;12.15;100.00
32324;BME280;25666;44.350;9.222;2022-12-29T06:20:50;102292.53;;;12.17;100.00
32324;BME280;25666;44.350;9.222;2022-12-29T06:23:17;102288.75;;;12.13;100.00
32324;BME280;25666;44.350;9.222;2022-12-29T06:25:44;102290.25;;;12.19;100.00
32324;BME280;25666;44.350;9.222;2022-12-29T06:28:12;102294.88;;;12.23;100.00
32324;BME280;25666;44.350;9.222;2022-12-29T06:30:38;102281.41;;;12.25;100.00
32324;BME280;25666;44.350;9.222;2022-12-29T06:33:04;102289.78;;;12.25;100.00
32324;BME280;25666;44.350;9.222;2022-12-29T06:35:30;102273.19;;;12.20;100.00
32324;BME280;25666;44.350;9.222;2022-12-29T06:37:56;102283.53;;;12.28;100.00
32324;BME280;25666;44.350;9.222;2022-12-29T06:40:22;102276.16;;;12.32;100.00
32324;BME280;25666;44.350;9.222;2022-12-29T06:43:00;102278.00;;;12.37;100.00
32324;BME280;25666;44.350;9.222;2022-12-29T06:45:45;102280.44;;;12.39;100.00
32324;BME280;25666;44.350;9.222;2022-12-29T06:48:11;102280.44;;;12.39;100.00
32324;BME280;25666;44.350;9.222;2022-12-29T06:50:36;102290.31;;;12.45;100.00
32324;BME280;25666;44.350;9.222;2022-12-29T06:53:02;102282.13;;;12.48;100.00
32324;BME280;25666;44.350;9.222;2022-12-29T06:55:28;102286.38;;;12.46;100.00
32324;BME280;25666;44.350;9.222;2022-12-29T06:57:55;102285.72;;;12.49;100.00
32324;BME280;25666;44.350;9.222;2022-12-29T07:00:26;102283.94;;;12.53;100.00
32324;BME280;25666;44.350;9.222;2022-12-29T07:02:54;102280.31;;;12.52;100.00
32324;BME280;25666;44.350;9.222;2022-12-29T07:05:20;102279.63;;;12.38;100.00
32324;BME280;25666;44.350;9.222;2022-12-29T07:13:10;102294.13;;;12.57;100.00
32324;BME280;25666;44.350;9.222;2022-12-29T07:15:37;102299.69;;;12.57;100.00
32324;BME280;25666;44.350;9.222;2022-12-29T07:18:05;102307.94;;;12.62;100.00
32324;BME280;25666;44.350;9.222;2022-12-29T07:20:32;102302.34;;;12.62;100.00
32324;BME280;25666;44.350;9.222;2022-12-29T07:22:57;102309.44;;;12.68;100.00
32324;BME280;25666;44.350;9.222;2022-12-29T07:25:23;102305.47;;;12.69;100.00
32324;BME280;25666;44.350;9.222;2022-12-29T07:27:49;102298.56;;;12.67;100.00
32324;BME280;25666;44.350;9.222;2022-12-29T07:30:15;102297.91;;;12.70;100.00
32324;BME280;25666;44.350;9.222;2022-12-29T07:40:47;102309.91;;;12.87;100.00
32324;BME280;25666;44.350;9.222;2022-12-29T07:43:13;102316.16;;;12.84;100.00
32324;BME280;25666;44.350;9.222;2022-12-29T07:45:45;102313.53;;;12.79;100.00
32324;BME280;25666;44.350;9.222;2022-12-29T08:26:43;102333.63;;;13.33;100.00
32324;BME280;25666;44.350;9.222;2022-12-29T08:29:08;102331.84;;;13.37;100.00
32324;BME280;25666;44.350;9.222;2022-12-29T08:34:01;102328.69;;;13.30;100.00
32324;BME280;25666;44.350;9.222;2022-12-29T08:36:29;102334.63;;;13.28;100.00
32324;BME280;25666;44.350;9.222;2022-12-29T08:38:56;102337.09;;;13.21;100.00
32324;BME280;25666;44.350;9.222;2022-12-29T08:46:30;102332.78;;;13.41;100.00
32324;BME280;25666;44.350;9.222;2022-12-29T08:48:56;102339.38;;;13.45;100.00
32324;BME280;25666;44.350;9.222;2022-12-29T08:51:25;102342.00;;;13.41;100.00
32324;BME280;25666;44.350;9.222;2022-12-29T08:53:51;102335.91;;;13.48;100.00
32324;BME280;25666;44.350;9.222;2022-12-29T08:56:17;102339.06;;;13.47;100.00
32324;BME280;25666;44.350;9.222;2022-12-29T08:58:48;102345.44;;;13.47;100.00
32324;BME280;25666;44.350;9.222;2022-12-29T09:01:16;102341.03;;;13.46;100.00
32324;BME280;25666;44.350;9.222;2022-12-29T09:03:42;102339.53;;;13.49;100.00
32324;BME280;25666;44.350;9.222;2022-12-29T09:06:08;102340.16;;;13.63;100.00
32324;BME280;25666;44.350;9.222;2022-12-29T09:08:34;102342.81;;;13.59;100.00
32324;BME280;25666;44.350;9.222;2022-12-29T09:13:36;102316.56;;;13.89;100.00
32324;BME280;25666;44.350;9.222;2022-12-29T09:16:02;102315.72;;;13.89;100.00
32324;BME280;25666;44.350;9.222;2022-12-29T09:18:28;102320.34;;;13.93;100.00
32324;BME280;25666;44.350;9.222;2022-12-29T09:21:03;102325.94;;;13.85;100.00
32324;BME280;25666;44.350;9.222;2022-12-29T09:23:30;102333.56;;;13.84;100.00
32324;BME280;25666;44.350;9.222;2022-12-29T09:25:55;102333.16;;;13.94;100.00
32324;BME280;25666;44.350;9.222;2022-12-29T09:28:21;102331.97;;;14.04;100.00
32324;BME280;25666;44.350;9.222;2022-12-29T09:30:48;102333.16;;;14.03;100.00
32324;BME280;25666;44.350;9.222;2022-12-29T09:33:14;102339.38;;;14.09;100.00
32324;BME280;25666;44.350;9.222;2022-12-29T09:35:44;102332.28;;;14.11;100.00
32324;BME280;25666;44.350;9.222;2022-12-29T09:38:10;102332.59;;;14.18;100.00
32324;BME280;25666;44.350;9.222;2022-12-29T09:40:36;102338.66;;;14.20;100.00
32324;BME280;25666;44.350;9.222;2022-12-29T09:45:44;102331.41;;;14.19;100.00
32324;BME280;25666;44.350;9.222;2022-12-29T09:48:20;102330.31;;;14.12;100.00
32324;BME280;25666;44.350;9.222;2022-12-29T09:50:51;102325.19;;;14.14;100.00
32324;BME280;25666;44.350;9.222;2022-12-29T09:53:23;102331.13;;;14.12;100.00
32324;BME280;25666;44.350;9.222;2022-12-29T09:55:56;102330.63;;;14.19;100.00
32324;BME280;25666;44.350;9.222;2022-12-29T09:58:25;102332.53;;;14.27;100.00
32324;BME280;25666;44.350;9.222;2022-12-29T10:01:02;102329.25;;;14.33;100.00
32324;BME280;25666;44.350;9.222;2022-12-29T10:03:44;102326.88;;;14.44;100.00
32324;BME280;25666;44.350;9.222;2022-12-29T10:06:17;102320.94;;;14.45;100.00
32324;BME280;25666;44.350;9.222;2022-12-29T10:09:29;102317.50;;;14.40;100.00
32324;BME280;25666;44.350;9.222;2022-12-29T10:17:11;102298.19;;;14.47;100.00
32324;BME280;25666;44.350;9.222;2022-12-29T10:25:25;102309.13;;;14.61;100.00
32324;BME280;25666;44.350;9.222;2022-12-29T10:27:53;102322.69;;;14.59;100.00
32324;BME280;25666;44.350;9.222;2022-12-29T10:30:20;102305.19;;;14.62;100.00
32324;BME280;25666;44.350;9.222;2022-12-29T10:32:53;102315.56;;;14.61;100.00
32324;BME280;25666;44.350;9.222;2022-12-29T10:35:23;102307.00;;;14.58;100.00
32324;BME280;25666;44.350;9.222;2022-12-29T10:37:55;102315.94;;;14.60;100.00
32324;BME280;25666;44.350;9.222;2022-12-29T10:40:29;102307.31;;;14.65;100.00
32324;BME280;25666;44.350;9.222;2022-12-29T10:42:58;102312.28;;;14.59;100.00
32324;BME280;25666;44.350;9.222;2022-12-29T10:45:29;102293.06;;;14.49;100.00
32324;BME280;25666;44.350;9.222;2022-12-29T10:50:27;102289.06;;;14.59;100.00
32324;BME280;25666;44.350;9.222;2022-12-29T10:52:57;102280.50;;;14.76;100.00
32324;BME280;25666;44.350;9.222;2022-12-29T10:55:28;102296.38;;;14.92;100.00
32324;BME280;25666;44.350;9.222;2022-12-29T10:58:00;102285.44;;;14.99;100.00
32324;BME280;25666;44.350;9.222;2022-12-29T11:00:27;102279.00;;;14.99;100.00
32324;BME280;25666;44.350;9.222;2022-12-29T11:03:27;102286.19;;;15.09;100.00
32324;BME280;25666;44.350;9.222;2022-12-29T11:06:09;102264.81;;;15.16;100.00
32324;BME280;25666;44.350;9.222;2022-12-29T11:09:02;102267.28;;;15.18;100.00
32324;BME280;25666;44.350;9.222;2022-12-29T11:11:35;102255.78;;;15.11;100.00
32324;BME280;25666;44.350;9.222;2022-12-29T11:14:19;102256.75;;;15.15;100.00
32324;BME280;25666;44.350;9.222;2022-12-29T11:17:01;102258.28;;;15.12;100.00
32324;BME280;25666;44.350;9.222;2022-12-29T11:19:29;102255.59;;;15.16;100.00
32324;BME280;25666;44.350;9.222;2022-12-29T11:22:12;102249.03;;;15.12;100.00
32324;BME280;25666;44.350;9.222;2022-12-29T11:24:50;102253.34;;;15.09;100.00
32324;BME280;25666;44.350;9.222;2022-12-29T11:27:20;102248.06;;;15.08;100.00
32324;BME280;25666;44.350;9.222;2022-12-29T11:29:49;102242.72;;;15.15;100.00
32324;BME280;25666;44.350;9.222;2022-12-29T11:32:23;102233.50;;;15.14;100.00
32324;BME280;25666;44.350;9.222;2022-12-29T11:34:49;102232.72;;;15.26;100.00
32324;BME280;25666;44.350;9.222;2022-12-29T11:37:23;102228.63;;;15.35;100.00
32324;BME280;25666;44.350;9.222;2022-12-29T11:39:58;102225.25;;;15.30;100.00
32324;BME280;25666;44.350;9.222;2022-12-29T11:42:40;102215.28;;;15.20;100.00
32324;BME280;25666;44.350;9.222;2022-12-29T11:45:21;102210.47;;;15.09;100.00
32324;BME280;25666;44.350;9.222;2022-12-29T11:47:58;102199.34;;;15.00;100.00
32324;BME280;25666;44.350;9.222;2022-12-29T11:50:31;102197.16;;;14.85;100.00
32324;BME280;25666;44.350;9.222;2022-12-29T11:55:26;102187.44;;;14.82;100.00
32324;BME280;25666;44.350;9.222;2022-12-29T11:57:55;102182.81;;;14.86;100.00
32324;BME280;25666;44.350;9.222;2022-12-29T12:00:23;102199.34;;;14.79;100.00
32324;BME280;25666;44.350;9.222;2022-12-29T12:03:01;102201.50;;;14.62;100.00
32324;BME280;25666;44.350;9.222;2022-12-29T12:08:45;102200.25;;;14.71;100.00
32324;BME280;25666;44.350;9.222;2022-12-29T12:11:15;102202.38;;;14.74;100.00
32324;BME280;25666;44.350;9.222;2022-12-29T12:14:23;102186.63;;;14.82;100.00
32324;BME280;25666;44.350;9.222;2022-12-29T12:17:14;102185.78;;;15.02;100.00
32324;BME280;25666;44.350;9.222;2022-12-29T12:19:57;102182.75;;;15.07;100.00
32324;BME280;25666;44.350;9.222;2022-12-29T12:22:35;102167.03;;;15.27;100.00
32324;BME280;25666;44.350;9.222;2022-12-29T12:25:20;102168.00;;;15.43;100.00
32324;BME280;25666;44.350;9.222;2022-12-29T12:27:52;102157.09;;;15.29;100.00
32324;BME280;25666;44.350;9.222;2022-12-29T12:30:24;102158.84;;;15.22;100.00
32324;BME280;25666;44.350;9.222;2022-12-29T12:33:21;102164.19;;;15.15;100.00
32324;BME280;25666;44.350;9.222;2022-12-29T12:35:52;102155.34;;;15.25;100.00
32324;BME280;25666;44.350;9.222;2022-12-29T12:38:47;102161.69;;;15.34;100.00
32324;BME280;25666;44.350;9.222;2022-12-29T12:49:32;102159.41;;;15.15;100.00
32324;BME280;25666;44.350;9.222;2022-12-29T12:57:53;102145.41;;;15.15;100.00
32324;BME280;25666;44.350;9.222;2022-12-29T13:00:22;102145.53;;;15.19;100.00
32324;BME280;25666;44.350;9.222;2022-12-29T13:06:04;102150.31;;;15.30;100.00
32324;BME280;25666;44.350;9.222;2022-12-29T13:11:50;102143.75;;;15.26;100.00
32324;BME280;25666;44.350;9.222;2022-12-29T13:17:36;102127.75;;;15.39;100.00
32324;BME280;25666;44.350;9.222;2022-12-29T13:25:36;102120.63;;;15.41;100.00
32324;BME280;25666;44.350;9.222;2022-12-29T13:31:25;102120.88;;;15.36;100.00
32324;BME280;25666;44.350;9.222;2022-12-29T13:34:03;102112.47;;;15.36;100.00
32324;BME280;25666;44.350;9.222;2022-12-29T13:36:43;102112.22;;;15.41;100.00
32324;BME280;25666;44.350;9.222;2022-12-29T13:39:23;102106.59;;;15.41;100.00
32324;BME280;25666;44.350;9.222;2022-12-29T13:41:52;102098.88;;;15.38;100.00
32324;BME280;25666;44.350;9.222;2022-12-29T13:46:47;102104.41;;;15.47;100.00
32324;BME280;25666;44.350;9.222;2022-12-29T13:49:17;102102.63;;;15.42;100.00
32324;BME280;25666;44.350;9.222;2022-12-29T13:52:21;102105.44;;;15.42;100.00
32324;BME280;25666;44.350;9.222;2022-12-29T13:58:02;102100.78;;;15.46;100.00
32324;BME280;25666;44.350;9.222;2022-12-29T14:00:35;102104.91;;;15.49;100.00
32324;BME280;25666;44.350;9.222;2022-12-29T14:03:10;102102.63;;;15.42;100.00
32324;BME280;25666;44.350;9.222;2022-12-29T14:05:38;102100.19;;;15.41;100.00
32324;BME280;25666;44.350;9.222;2022-12-29T14:08:16;102101.59;;;15.47;100.00
32324;BME280;25666;44.350;9.222;2022-12-29T14:10:50;102093.53;;;15.45;100.00
32324;BME280;25666;44.350;9.222;2022-12-29T14:13:19;102094.34;;;15.46;100.00
32324;BME280;25666;44.350;9.222;2022-12-29T14:15:51;102094.91;;;15.39;100.00
32324;BME280;25666;44.350;9.222;2022-12-29T14:18:21;102091.75;;;15.29;100.00
32324;BME280;25666;44.350;9.222;2022-12-29T14:21:20;102089.31;;;15.39;100.00
32324;BME280;25666;44.350;9.222;2022-12-29T14:23:50;102090.59;;;15.42;100.00
32324;BME280;25666;44.350;9.222;2022-12-29T14:28:55;102084.75;;;15.47;100.00
32324;BME280;25666;44.350;9.222;2022-12-29T14:36:38;102094.81;;;15.36;100.00
32324;BME280;25666;44.350;9.222;2022-12-29T14:39:39;102094.09;;;15.39;100.00
32324;BME280;25666;44.350;9.222;2022-12-29T14:44:46;102097.84;;;15.31;100.00
32324;BME280;25666;44.350;9.222;2022-12-29T14:47:19;102086.50;;;15.27;100.00
32324;BME280;25666;44.350;9.222;2022-12-29T14:49:46;102085.34;;;15.28;100.00
32324;BME280;25666;44.350;9.222;2022-12-29T14:52:20;102096.19;;;15.30;100.00
32324;BME280;25666;44.350;9.222;2022-12-29T14:54:49;102097.97;;;15.22;100.00
32324;BME280;25666;44.350;9.222;2022-12-29T14:59:46;102093.63;;;15.25;100.00
32324;BME280;25666;44.350;9.222;2022-12-29T15:02:16;102091.28;;;15.27;100.00
32324;BME280;25666;44.350;9.222;2022-12-29T15:04:44;102082.19;;;15.30;100.00
32324;BME280;25666;44.350;9.222;2022-12-29T15:07:11;102075.41;;;15.31;100.00
32324;BME280;25666;44.350;9.222;2022-12-29T15:09:42;102085.22;;;15.25;100.00
32324;BME280;25666;44.350;9.222;2022-12-29T15:12:37;102083.69;;;15.27;100.00
32324;BME280;25666;44.350;9.222;2022-12-29T15:15:19;102077.25;;;15.27;100.00
32324;BME280;25666;44.350;9.222;2022-12-29T15:17:45;102084.72;;;15.23;100.00
32324;BME280;25666;44.350;9.222;2022-12-29T15:20:28;102086.75;;;15.22;100.00
32324;BME280;25666;44.350;9.222;2022-12-29T15:23:09;102085.22;;;15.25;100.00
32324;BME280;25666;44.350;9.222;2022-12-29T15:25:36;102079.94;;;15.23;100.00
32324;BME280;25666;44.350;9.222;2022-12-29T15:28:04;102081.22;;;15.14;100.00
32324;BME280;25666;44.350;9.222;2022-12-29T15:30:31;102067.00;;;15.19;100.00
32324;BME280;25666;44.350;9.222;2022-12-29T15:32:57;102069.44;;;15.20;100.00
32324;BME280;25666;44.350;9.222;2022-12-29T15:35:32;102075.41;;;15.19;100.00
32324;BME280;25666;44.350;9.222;2022-12-29T15:37:59;102077.84;;;15.20;100.00
32324;BME280;25666;44.350;9.222;2022-12-29T15:40:28;102082.63;;;15.20;100.00
32324;BME280;25666;44.350;9.222;2022-12-29T15:45:49;102093.16;;;15.23;100.00
32324;BME280;25666;44.350;9.222;2022-12-29T15:48:21;102090.22;;;15.19;100.00
32324;BME280;25666;44.350;9.222;2022-12-29T15:50:48;102093.63;;;15.25;100.00
32324;BME280;25666;44.350;9.222;2022-12-29T15:55:45;102092.69;;;15.21;100.00
32324;BME280;25666;44.350;9.222;2022-12-29T15:58:27;102086.97;;;15.17;100.00
32324;BME280;25666;44.350;9.222;2022-12-29T16:00:56;102087.09;;;15.21;100.00